createdAt,value
2023-05-06T00:00:55.880Z,4.90
2023-05-06T00:01:55.915Z,4.61
2023-05-06T00:02:55.946Z,4.66
2023-05-06T00:03:56.182Z,4.68
2023-05-06T00:04:56.091Z,4.84
2023-05-06T00:05:55.986Z,4.66
2023-05-06T00:06:55.953Z,4.85
2023-05-06T00:07:55.995Z,4.76
2023-05-06T00:08:55.996Z,4.61
2023-05-06T00:09:55.970Z,4.59
2023-05-06T00:10:55.976Z,4.63
2023-05-06T00:11:55.970Z,4.76
2023-05-06T00:12:56.068Z,4.56
2023-05-06T00:13:56.032Z,4.57
2023-05-06T00:14:55.994Z,4.70
2023-05-06T00:15:56.018Z,4.85
2023-05-06T00:16:56.044Z,4.96
2023-05-06T00:17:56.170Z,4.75
2023-05-06T00:18:56.080Z,4.73
2023-05-06T00:19:56.032Z,4.72
2023-05-06T00:20:56.103Z,4.77
2023-05-06T00:21:56.138Z,4.78
2023-05-06T00:22:56.055Z,4.73
2023-05-06T00:23:56.090Z,4.77
2023-05-06T00:24:56.062Z,4.85
2023-05-06T00:25:56.117Z,4.71
2023-05-06T00:26:56.078Z,4.76
2023-05-06T00:27:56.133Z,4.91
2023-05-06T00:28:56.110Z,4.76
2023-05-06T00:29:56.083Z,4.49
2023-05-06T00:30:56.092Z,4.48
2023-05-06T00:31:56.267Z,4.57
2023-05-06T00:32:56.170Z,4.52
2023-05-06T00:33:56.118Z,4.70
2023-05-06T00:34:56.104Z,4.50
2023-05-06T00:35:56.114Z,4.78
2023-05-06T00:36:56.139Z,4.71
2023-05-06T00:37:56.100Z,4.83
2023-05-06T00:38:56.116Z,4.70
2023-05-06T00:39:56.165Z,4.66
2023-05-06T00:40:56.169Z,4.62
2023-05-06T00:41:56.140Z,4.55
2023-05-06T00:42:56.125Z,4.91
2023-05-06T00:43:56.137Z,4.61
2023-05-06T00:44:56.186Z,4.66
2023-05-06T00:45:56.263Z,4.70
2023-05-06T00:46:56.229Z,4.67
2023-05-06T00:47:56.205Z,4.72
2023-05-06T00:48:56.177Z,4.61
2023-05-06T00:49:56.293Z,4.41
2023-05-06T00:50:56.188Z,4.71
2023-05-06T00:51:56.162Z,4.68
2023-05-06T00:52:56.194Z,4.68
2023-05-06T00:53:56.156Z,4.39
2023-05-06T00:54:56.162Z,4.58
2023-05-06T00:55:56.244Z,4.56
2023-05-06T00:56:56.292Z,4.61
2023-05-06T00:57:56.230Z,4.68
2023-05-06T00:58:56.234Z,4.65
2023-05-06T00:59:56.247Z,4.26
2023-05-06T01:00:56.254Z,4.55
2023-05-06T01:01:56.361Z,4.43
2023-05-06T01:02:56.394Z,4.33
2023-05-06T01:03:56.537Z,4.54
2023-05-06T01:04:56.364Z,4.53
2023-05-06T01:05:56.375Z,4.40
2023-05-06T01:06:56.505Z,4.32
2023-05-06T01:07:56.359Z,4.66
2023-05-06T01:08:56.378Z,4.56
2023-05-06T01:09:56.372Z,4.67
2023-05-06T01:10:56.435Z,4.36
2023-05-06T01:11:56.361Z,4.49
2023-05-06T01:12:56.374Z,4.64
2023-05-06T01:13:56.364Z,4.43
2023-05-06T01:14:56.386Z,4.42
2023-05-06T01:15:56.365Z,4.67
2023-05-06T01:16:56.395Z,4.64
2023-05-06T01:17:56.432Z,4.67
2023-05-06T01:18:56.347Z,4.61
2023-05-06T01:19:56.353Z,4.50
2023-05-06T01:20:56.406Z,4.38
2023-05-06T01:21:56.580Z,4.32
2023-05-06T01:22:56.620Z,4.32
2023-05-06T01:23:56.752Z,4.56
2023-05-06T01:24:56.726Z,4.42
2023-05-06T01:25:56.684Z,4.54
2023-05-06T01:26:56.689Z,4.28
2023-05-06T01:27:56.681Z,4.47
2023-05-06T01:28:56.719Z,4.26
2023-05-06T01:29:56.685Z,4.47
2023-05-06T01:30:56.726Z,4.41
2023-05-06T01:31:56.728Z,4.48
2023-05-06T01:32:56.783Z,4.48
2023-05-06T01:33:56.715Z,4.58
2023-05-06T01:34:56.801Z,4.45
2023-05-06T01:35:56.761Z,4.48
2023-05-06T01:36:56.748Z,4.48
2023-05-06T01:37:56.833Z,4.40
2023-05-06T01:38:56.827Z,4.41
2023-05-06T01:39:56.759Z,4.33
2023-05-06T01:40:56.846Z,4.42
2023-05-06T01:41:56.844Z,4.37
2023-05-06T01:42:56.902Z,4.37
2023-05-06T01:43:56.857Z,4.23
2023-05-06T01:44:56.905Z,4.28
2023-05-06T01:45:56.907Z,4.33
2023-05-06T01:46:56.948Z,4.25
2023-05-06T01:47:57.086Z,4.47
2023-05-06T01:48:56.957Z,4.40
2023-05-06T01:49:56.961Z,4.49
2023-05-06T01:50:56.980Z,4.40
2023-05-06T01:51:57.047Z,4.49
2023-05-06T01:52:57.185Z,4.43
2023-05-06T01:53:57.235Z,4.42
2023-05-06T01:54:57.271Z,4.48
2023-05-06T01:55:57.140Z,4.47
2023-05-06T01:56:57.169Z,4.38
2023-05-06T01:57:57.223Z,4.58
2023-05-06T01:58:59.220Z,4.55
2023-05-06T01:59:57.189Z,4.50
2023-05-06T02:00:57.190Z,4.30
2023-05-06T02:01:57.357Z,4.44
2023-05-06T02:02:57.416Z,4.37
2023-05-06T02:03:57.527Z,4.52
2023-05-06T02:04:57.301Z,4.42
2023-05-06T02:05:57.323Z,4.39
2023-05-06T02:06:57.337Z,4.41
2023-05-06T02:07:57.345Z,4.23
2023-05-06T02:08:57.331Z,4.28
2023-05-06T02:09:57.397Z,4.25
2023-05-06T02:10:57.354Z,4.44
2023-05-06T02:11:57.385Z,4.38
2023-05-06T02:12:57.445Z,4.27
2023-05-06T02:13:57.428Z,4.32
2023-05-06T02:14:57.423Z,4.41
2023-05-06T02:15:57.494Z,4.35
2023-05-06T02:16:57.446Z,4.37
2023-05-06T02:17:57.501Z,4.28
2023-05-06T02:18:57.465Z,4.33
2023-05-06T02:19:57.444Z,4.34
2023-05-06T02:20:57.467Z,4.13
2023-05-06T02:21:57.460Z,4.15
2023-05-06T02:22:57.627Z,4.27
2023-05-06T02:23:57.601Z,4.29
2023-05-06T02:24:57.570Z,4.24
2023-05-06T02:25:57.657Z,4.25
2023-05-06T02:26:57.598Z,4.24
2023-05-06T02:27:57.629Z,4.23
2023-05-06T02:28:57.718Z,4.35
2023-05-06T02:29:57.677Z,4.29
2023-05-06T02:30:57.727Z,4.25
2023-05-06T02:31:57.791Z,4.25
2023-05-06T02:32:57.819Z,4.32
2023-05-06T02:33:57.780Z,4.09
2023-05-06T02:34:57.780Z,4.22
2023-05-06T02:35:57.926Z,4.29
2023-05-06T02:36:57.879Z,4.21
2023-05-06T02:37:57.902Z,4.25
2023-05-06T02:38:57.897Z,4.25
2023-05-06T02:39:57.903Z,4.03
2023-05-06T02:40:57.940Z,4.21
2023-05-06T02:41:58.039Z,4.18
2023-05-06T02:42:57.971Z,4.14
2023-05-06T02:43:57.937Z,4.04
2023-05-06T02:44:57.944Z,4.02
2023-05-06T02:45:57.978Z,4.14
2023-05-06T02:46:57.980Z,4.12
2023-05-06T02:47:58.156Z,4.14
2023-05-06T02:48:58.191Z,4.14
2023-05-06T02:49:58.277Z,4.10
2023-05-06T02:50:58.259Z,4.11
2023-05-06T02:51:58.278Z,4.14
2023-05-06T02:52:58.268Z,4.07
2023-05-06T02:53:58.311Z,4.07
2023-05-06T02:54:58.311Z,4.05
2023-05-06T02:55:58.344Z,4.08
2023-05-06T02:56:58.341Z,4.03
2023-05-06T02:57:58.423Z,4.05
2023-05-06T02:58:58.397Z,4.06
2023-05-06T02:59:58.397Z,3.98
2023-05-06T03:00:58.421Z,4.03
2023-05-06T03:01:58.536Z,4.01
2023-05-06T03:02:58.533Z,4.00
2023-05-06T03:03:58.515Z,4.03
2023-05-06T03:04:58.469Z,4.02
2023-05-06T03:05:58.506Z,4.01
2023-05-06T03:06:58.508Z,3.97
2023-05-06T03:07:58.590Z,3.92
2023-05-06T03:08:58.588Z,3.92
2023-05-06T03:09:58.632Z,3.87
2023-05-06T03:10:58.636Z,3.90
2023-05-06T03:11:58.649Z,3.88
2023-05-06T03:12:58.673Z,3.88
2023-05-06T03:13:58.798Z,3.74
2023-05-06T03:14:58.760Z,3.84
2023-05-06T03:15:58.776Z,3.81
2023-05-06T03:16:58.868Z,3.83
2023-05-06T03:17:58.823Z,3.82
2023-05-06T03:18:58.838Z,3.79
2023-05-06T03:19:58.910Z,3.80
2023-05-06T03:20:58.953Z,3.76
2023-05-06T03:21:58.893Z,3.89
2023-05-06T03:22:58.920Z,3.87
2023-05-06T03:23:58.993Z,3.80
2023-05-06T03:24:58.978Z,3.84
2023-05-06T03:25:59.036Z,3.85
2023-05-06T03:26:59.098Z,3.79
2023-05-06T03:27:59.112Z,3.84
2023-05-06T03:28:59.144Z,3.82
2023-05-06T03:29:59.276Z,3.80
2023-05-06T03:30:59.137Z,3.80
2023-05-06T03:31:59.252Z,3.74
2023-05-06T03:32:59.183Z,3.81
2023-05-06T03:33:59.141Z,3.87
2023-05-06T03:34:59.177Z,3.79
2023-05-06T03:35:59.199Z,3.82
2023-05-06T03:36:59.230Z,3.73
2023-05-06T03:37:59.230Z,3.76
2023-05-06T03:38:59.288Z,3.78
2023-05-06T03:39:59.247Z,3.76
2023-05-06T03:40:59.258Z,3.78
2023-05-06T03:41:59.327Z,3.78
2023-05-06T03:42:59.321Z,3.78
2023-05-06T03:43:59.320Z,3.75
2023-05-06T03:44:59.385Z,3.75
2023-05-06T03:45:59.498Z,3.70
2023-05-06T03:46:59.449Z,3.71
2023-05-06T03:47:59.486Z,3.70
2023-05-06T03:48:59.456Z,3.74
2023-05-06T03:49:59.458Z,3.75
2023-05-06T03:50:59.477Z,3.71
2023-05-06T03:51:59.495Z,3.69
2023-05-06T03:52:59.540Z,3.72
2023-05-06T03:53:59.579Z,3.68
2023-05-06T03:54:59.553Z,3.72
2023-05-06T03:55:59.598Z,3.77
2023-05-06T03:56:59.720Z,3.74
2023-05-06T03:57:59.679Z,3.68
2023-05-06T03:58:59.725Z,3.74
2023-05-06T03:59:59.696Z,3.76
2023-05-06T04:00:59.728Z,3.75
2023-05-06T04:01:59.781Z,3.61
2023-05-06T04:02:59.814Z,3.78
2023-05-06T04:03:59.837Z,3.75
2023-05-06T04:04:59.828Z,3.75
2023-05-06T04:05:59.833Z,3.72
2023-05-06T04:06:59.889Z,3.68
2023-05-06T04:07:59.945Z,3.73
2023-05-06T04:08:59.971Z,3.76
2023-05-06T04:09:59.975Z,3.73
2023-05-06T04:10:59.973Z,3.68
2023-05-06T04:11:59.974Z,3.72
2023-05-06T04:13:00.140Z,3.72
2023-05-06T04:14:00.129Z,3.75
2023-05-06T04:15:00.083Z,3.73
2023-05-06T04:16:00.276Z,3.66
2023-05-06T04:17:00.121Z,3.70
2023-05-06T04:18:00.266Z,3.71
2023-05-06T04:19:00.128Z,3.75
2023-05-06T04:20:00.110Z,3.71
2023-05-06T04:21:00.149Z,3.70
2023-05-06T04:22:00.181Z,3.75
2023-05-06T04:23:00.147Z,3.68
2023-05-06T04:24:00.216Z,3.71
2023-05-06T04:25:01.003Z,3.78
2023-05-06T04:26:00.166Z,3.71
2023-05-06T04:27:00.217Z,3.71
2023-05-06T04:28:00.234Z,3.71
2023-05-06T04:29:00.233Z,3.72
2023-05-06T04:30:00.264Z,3.73
2023-05-06T04:31:00.306Z,3.66
2023-05-06T04:32:00.465Z,3.69
2023-05-06T04:33:00.347Z,3.72
2023-05-06T04:34:00.313Z,3.60
2023-05-06T04:35:00.337Z,3.61
2023-05-06T04:36:00.368Z,3.60
2023-05-06T04:37:00.388Z,3.61
2023-05-06T04:38:00.400Z,3.56
2023-05-06T04:39:00.418Z,3.59
2023-05-06T04:40:00.437Z,3.56
2023-05-06T04:41:00.429Z,3.58
2023-05-06T04:42:00.430Z,3.56
2023-05-06T04:43:00.432Z,3.48
2023-05-06T04:44:00.450Z,3.50
2023-05-06T04:45:00.438Z,3.48
2023-05-06T04:46:00.527Z,3.48
2023-05-06T04:47:00.577Z,3.49
2023-05-06T04:48:00.504Z,3.45
2023-05-06T04:49:00.489Z,3.51
2023-05-06T04:50:00.576Z,3.42
2023-05-06T04:51:00.497Z,3.46
2023-05-06T04:52:00.580Z,3.41
2023-05-06T04:53:00.547Z,3.41
2023-05-06T04:54:00.585Z,3.40
2023-05-06T04:55:00.550Z,3.47
2023-05-06T04:56:00.592Z,3.37
2023-05-06T04:57:00.704Z,3.43
2023-05-06T04:58:00.605Z,3.40
2023-05-06T04:59:00.571Z,3.44
2023-05-06T05:00:00.864Z,3.41
2023-05-06T05:01:00.708Z,3.34
2023-05-06T05:02:00.691Z,3.34
2023-05-06T05:03:01.467Z,3.38
2023-05-06T05:04:00.689Z,3.40
2023-05-06T05:05:00.702Z,3.37
2023-05-06T05:06:00.751Z,3.33
2023-05-06T05:07:00.721Z,3.37
2023-05-06T05:08:00.709Z,3.29
2023-05-06T05:09:00.726Z,3.38
2023-05-06T05:10:00.738Z,3.31
2023-05-06T05:11:00.798Z,3.26
2023-05-06T05:12:00.808Z,3.32
2023-05-06T05:13:00.811Z,3.27
2023-05-06T05:14:02.161Z,3.30
2023-05-06T05:15:00.830Z,3.31
2023-05-06T05:16:00.874Z,3.33
2023-05-06T05:17:00.846Z,3.30
2023-05-06T05:18:00.825Z,3.33
2023-05-06T05:19:03.299Z,3.32
2023-05-06T05:20:00.821Z,3.33
2023-05-06T05:21:00.859Z,3.35
2023-05-06T05:22:00.808Z,3.33
2023-05-06T05:23:00.801Z,3.39
2023-05-06T05:24:00.830Z,3.23
2023-05-06T05:25:00.782Z,3.38
2023-05-06T05:26:00.776Z,3.34
2023-05-06T05:27:00.799Z,3.34
2023-05-06T05:28:00.776Z,3.37
2023-05-06T05:29:00.866Z,3.33
2023-05-06T05:30:00.758Z,3.38
2023-05-06T05:31:00.791Z,3.33
2023-05-06T05:32:00.783Z,3.33
2023-05-06T05:33:00.894Z,3.40
2023-05-06T05:34:00.717Z,3.39
2023-05-06T05:35:00.753Z,3.40
2023-05-06T05:36:00.733Z,3.31
2023-05-06T05:37:00.701Z,3.36
2023-05-06T05:38:00.725Z,3.31
2023-05-06T05:39:00.728Z,3.35
2023-05-06T05:40:00.724Z,3.26
2023-05-06T05:41:00.670Z,3.29
2023-05-06T05:42:00.701Z,3.33
2023-05-06T05:43:00.737Z,3.26
2023-05-06T05:44:00.677Z,3.27
2023-05-06T05:45:00.674Z,3.25
2023-05-06T05:46:00.741Z,3.22
2023-05-06T05:47:00.597Z,3.24
2023-05-06T05:48:00.680Z,3.22
2023-05-06T05:49:00.623Z,3.24
2023-05-06T05:50:00.642Z,3.16
2023-05-06T05:51:00.593Z,3.19
2023-05-06T05:52:00.617Z,3.23
2023-05-06T05:53:00.632Z,3.15
2023-05-06T05:54:00.621Z,3.22
2023-05-06T05:55:00.620Z,3.26
2023-05-06T05:56:00.592Z,3.23
2023-05-06T05:57:00.578Z,3.18
2023-05-06T05:58:00.598Z,3.19
2023-05-06T05:59:00.617Z,3.12
2023-05-06T06:00:00.686Z,3.16
2023-05-06T06:01:00.594Z,3.16
2023-05-06T06:02:00.670Z,3.11
2023-05-06T06:03:00.696Z,3.22
2023-05-06T06:04:00.755Z,3.15
2023-05-06T06:05:00.622Z,3.17
2023-05-06T06:06:00.492Z,3.18
2023-05-06T06:07:00.511Z,3.12
2023-05-06T06:08:02.933Z,3.14
2023-05-06T06:09:00.507Z,3.14
2023-05-06T06:10:00.568Z,3.14
2023-05-06T06:11:00.834Z,3.14
2023-05-06T06:12:00.525Z,3.17
2023-05-06T06:13:00.531Z,3.12
2023-05-06T06:14:00.477Z,3.07
2023-05-06T06:15:00.452Z,3.08
2023-05-06T06:16:00.465Z,3.09
2023-05-06T06:17:00.419Z,3.04
2023-05-06T06:18:00.407Z,3.12
2023-05-06T06:19:00.487Z,3.05
2023-05-06T06:20:00.457Z,3.08
2023-05-06T06:21:00.405Z,3.07
2023-05-06T06:22:00.441Z,3.01
2023-05-06T06:23:00.400Z,3.06
2023-05-06T06:24:00.607Z,3.06
2023-05-06T06:25:00.397Z,3.02
2023-05-06T06:26:00.968Z,3.00
2023-05-06T06:27:00.392Z,3.04
2023-05-06T06:28:00.365Z,3.02
2023-05-06T06:29:00.357Z,3.02
2023-05-06T06:30:00.341Z,3.00
2023-05-06T06:31:00.350Z,3.00
2023-05-06T06:32:00.397Z,3.00
2023-05-06T06:33:00.440Z,3.01
2023-05-06T06:34:00.397Z,3.01
2023-05-06T06:35:00.346Z,2.96
2023-05-06T06:36:00.312Z,3.01
2023-05-06T06:37:00.321Z,2.93
2023-05-06T06:38:00.296Z,2.91
2023-05-06T06:39:00.297Z,2.84
2023-05-06T06:40:00.314Z,2.92
2023-05-06T06:41:00.317Z,2.90
2023-05-06T06:42:00.361Z,2.87
2023-05-06T06:43:00.250Z,2.83
2023-05-06T06:44:00.237Z,2.85
2023-05-06T06:45:00.251Z,2.82
2023-05-06T06:46:00.318Z,2.87
2023-05-06T06:47:00.244Z,2.79
2023-05-06T06:48:00.282Z,2.78
2023-05-06T06:49:00.200Z,2.83
2023-05-06T06:50:00.181Z,2.80
2023-05-06T06:51:00.209Z,2.75
2023-05-06T06:52:00.185Z,2.78
2023-05-06T06:53:00.183Z,2.75
2023-05-06T06:54:00.176Z,2.76
2023-05-06T06:55:00.164Z,2.76
2023-05-06T06:56:00.176Z,2.74
2023-05-06T06:57:00.156Z,2.62
2023-05-06T06:58:00.155Z,2.61
2023-05-06T06:59:00.172Z,2.64
2023-05-06T07:00:00.172Z,2.67
2023-05-06T07:01:00.242Z,2.66
2023-05-06T07:02:00.131Z,2.66
2023-05-06T07:03:00.147Z,2.64
2023-05-06T07:04:00.179Z,2.63
2023-05-06T07:05:00.167Z,2.60
2023-05-06T07:06:00.104Z,2.64
2023-05-06T07:07:00.154Z,2.61
2023-05-06T07:08:00.192Z,2.51
2023-05-06T07:09:00.111Z,2.56
2023-05-06T07:10:00.051Z,2.59
2023-05-06T07:11:00.053Z,2.49
2023-05-06T07:12:00.101Z,2.56
2023-05-06T07:13:00.209Z,2.55
2023-05-06T07:14:00.157Z,2.59
2023-05-06T07:15:00.021Z,2.62
2023-05-06T07:16:00.203Z,2.49
2023-05-06T07:17:00.072Z,2.55
2023-05-06T07:18:00.096Z,2.48
2023-05-06T07:19:00.063Z,2.47
2023-05-06T07:20:00.027Z,2.56
2023-05-06T07:20:59.970Z,2.56
2023-05-06T07:22:00.037Z,2.54
2023-05-06T07:22:59.953Z,2.60
2023-05-06T07:23:59.955Z,2.57
2023-05-06T07:25:00.068Z,2.55
2023-05-06T07:25:59.949Z,2.53
2023-05-06T07:26:59.934Z,2.54
2023-05-06T07:27:59.975Z,2.42
2023-05-06T07:28:59.932Z,2.49
2023-05-06T07:29:59.985Z,2.47
2023-05-06T07:30:59.932Z,2.53
2023-05-06T07:31:59.886Z,2.49
2023-05-06T07:32:59.917Z,2.51
2023-05-06T07:33:59.877Z,2.43
2023-05-06T07:34:59.890Z,2.43
2023-05-06T07:35:59.891Z,2.55
2023-05-06T07:36:59.876Z,2.42
2023-05-06T07:37:59.935Z,2.50
2023-05-06T07:38:59.892Z,2.52
2023-05-06T07:39:59.827Z,2.42
2023-05-06T07:40:59.840Z,2.46
2023-05-06T07:41:59.862Z,2.42
2023-05-06T07:42:59.851Z,2.39
2023-05-06T07:43:59.804Z,2.38
2023-05-06T07:44:59.834Z,2.50
2023-05-06T07:45:59.944Z,2.46
2023-05-06T07:46:59.926Z,2.52
2023-05-06T07:47:59.793Z,2.40
2023-05-06T07:48:59.768Z,2.41
2023-05-06T07:49:59.765Z,2.41
2023-05-06T07:50:59.774Z,2.35
2023-05-06T07:51:59.749Z,2.33
2023-05-06T07:52:59.861Z,2.57
2023-05-06T07:53:59.794Z,2.56
2023-05-06T07:54:59.755Z,2.50
2023-05-06T07:55:59.724Z,2.49
2023-05-06T07:56:59.709Z,2.54
2023-05-06T07:57:59.852Z,2.50
2023-05-06T07:58:59.747Z,2.44
2023-05-06T07:59:59.729Z,2.49
2023-05-06T08:00:59.743Z,2.42
2023-05-06T08:01:59.803Z,2.38
2023-05-06T08:02:59.759Z,2.29
2023-05-06T08:03:59.740Z,2.32
2023-05-06T08:04:59.660Z,2.43
2023-05-06T08:05:59.778Z,2.39
2023-05-06T08:06:59.701Z,2.24
2023-05-06T08:07:59.666Z,2.26
2023-05-06T08:09:53.996Z,0.50
2023-05-06T08:10:54.003Z,0.50
2023-05-06T08:11:54.022Z,0.50
2023-05-06T08:12:54.020Z,0.50
2023-05-06T08:13:53.995Z,0.50
2023-05-06T08:14:54.004Z,0.52
2023-05-06T08:15:54.017Z,0.50
2023-05-06T08:16:54.021Z,0.54
2023-05-06T08:17:54.032Z,0.51
2023-05-06T08:18:53.952Z,0.52
2023-05-06T08:19:54.041Z,0.52
2023-05-06T08:20:53.986Z,0.54
2023-05-06T08:21:53.925Z,0.51
2023-05-06T08:22:53.922Z,0.54
2023-05-06T08:23:53.931Z,0.53
2023-05-06T08:24:53.942Z,0.52
2023-05-06T08:25:53.897Z,0.50
2023-05-06T08:26:53.908Z,0.51
2023-05-06T08:27:53.913Z,0.53
2023-05-06T08:28:53.898Z,0.52
2023-05-06T08:29:54.026Z,0.53
2023-05-06T08:30:53.890Z,0.50
2023-05-06T08:31:53.985Z,0.53
2023-05-06T08:32:53.875Z,0.51
2023-05-06T08:33:54.800Z,0.51
2023-05-06T08:34:53.866Z,0.53
2023-05-06T08:35:53.882Z,0.52
2023-05-06T08:36:53.924Z,0.51
2023-05-06T08:37:53.857Z,0.53
2023-05-06T08:38:54.191Z,0.56
2023-05-06T08:39:53.782Z,0.52
2023-05-06T08:40:53.799Z,0.54
2023-05-06T08:41:53.816Z,0.54
2023-05-06T08:42:53.777Z,0.53
2023-05-06T08:43:53.787Z,0.56
2023-05-06T08:44:53.731Z,0.56
2023-05-06T08:45:53.867Z,0.53
2023-05-06T08:46:53.798Z,0.55
2023-05-06T08:47:53.848Z,0.52
2023-05-06T08:48:53.805Z,0.55
2023-05-06T08:49:53.853Z,0.53
2023-05-06T08:50:53.860Z,0.55
2023-05-06T08:51:54.164Z,0.53
2023-05-06T08:52:54.045Z,0.52
2023-05-06T08:53:54.042Z,0.50
2023-05-06T08:54:54.088Z,0.53
2023-05-06T08:55:54.147Z,0.50
2023-05-06T08:56:54.205Z,0.53
2023-05-06T08:57:54.233Z,0.52
2023-05-06T08:58:54.320Z,0.51
2023-05-06T08:59:54.321Z,0.55
2023-05-06T09:00:54.426Z,0.52
2023-05-06T09:01:54.442Z,0.55
2023-05-06T09:02:54.562Z,0.52
2023-05-06T09:03:54.557Z,0.52
2023-05-06T09:04:54.604Z,0.52
2023-05-06T09:05:54.668Z,0.50
2023-05-06T09:06:55.639Z,0.53
2023-05-06T09:07:54.745Z,0.52
2023-05-06T09:08:54.893Z,0.52
2023-05-06T09:09:54.877Z,0.54
2023-05-06T09:10:54.879Z,0.53
2023-05-06T09:11:54.942Z,0.54
2023-05-06T09:12:55.067Z,0.56
2023-05-06T09:13:55.045Z,0.53
2023-05-06T09:14:55.062Z,0.52
2023-05-06T09:15:55.118Z,0.52
2023-05-06T09:16:55.181Z,0.52
2023-05-06T09:17:55.364Z,0.51
2023-05-06T09:18:55.300Z,0.53
2023-05-06T09:19:55.402Z,0.52
2023-05-06T09:20:55.521Z,0.52
2023-05-06T09:21:55.571Z,0.52
2023-05-06T09:22:55.516Z,0.54
2023-05-06T09:23:55.501Z,0.51
2023-05-06T09:24:55.553Z,0.52
2023-05-06T09:25:55.648Z,0.51
2023-05-06T09:26:55.756Z,0.52
2023-05-06T09:27:55.749Z,0.53
2023-05-06T09:28:55.847Z,0.51
2023-05-06T09:29:55.831Z,0.52
2023-05-06T09:30:55.897Z,0.50
2023-05-06T09:31:55.952Z,0.50
2023-05-06T09:32:55.995Z,0.53
2023-05-06T09:33:56.059Z,0.53
2023-05-06T09:34:56.098Z,0.51
2023-05-06T09:35:56.139Z,0.53
2023-05-06T09:36:56.187Z,0.52
2023-05-06T09:37:56.371Z,0.55
2023-05-06T09:38:56.366Z,0.54
2023-05-06T09:39:56.346Z,0.51
2023-05-06T09:40:56.363Z,0.55
2023-05-06T09:41:56.449Z,0.53
2023-05-06T09:42:56.467Z,0.51
2023-05-06T09:43:56.699Z,0.54
2023-05-06T09:44:57.390Z,0.51
2023-05-06T09:45:56.684Z,0.51
2023-05-06T09:46:56.698Z,0.53
2023-05-06T09:47:56.729Z,0.54
2023-05-06T09:48:56.849Z,0.54
2023-05-06T09:49:56.918Z,0.53
2023-05-06T09:50:58.367Z,0.56
2023-05-06T09:51:56.904Z,0.54
2023-05-06T09:52:56.941Z,0.51
2023-05-06T09:53:56.968Z,0.55
2023-05-06T09:54:56.880Z,0.56
2023-05-06T09:55:56.865Z,0.53
2023-05-06T09:56:57.539Z,0.53
2023-05-06T09:57:56.844Z,0.54
2023-05-06T09:58:56.855Z,0.54
2023-05-06T09:59:56.825Z,0.53
2023-05-06T10:00:56.858Z,0.52
2023-05-06T10:01:56.882Z,0.52
2023-05-06T10:02:56.924Z,0.53
2023-05-06T10:03:56.974Z,0.52
2023-05-06T10:04:57.014Z,0.55
2023-05-06T10:05:56.850Z,0.55
2023-05-06T10:06:56.838Z,0.52
2023-05-06T10:07:56.906Z,0.55
2023-05-06T10:08:56.962Z,0.51
2023-05-06T10:09:57.026Z,0.54
2023-05-06T10:10:57.073Z,0.56
2023-05-06T10:11:57.069Z,0.53
2023-05-06T10:12:57.212Z,0.52
2023-05-06T10:13:57.195Z,0.52
2023-05-06T10:14:57.268Z,0.53
2023-05-06T10:15:57.307Z,0.54
2023-05-06T10:16:57.388Z,0.52
2023-05-06T10:17:57.411Z,0.52
2023-05-06T10:18:57.394Z,0.51
2023-05-06T10:19:57.427Z,0.52
2023-05-06T10:20:57.517Z,0.53
2023-05-06T10:21:57.543Z,0.54
2023-05-06T10:22:57.625Z,0.55
2023-05-06T10:23:57.667Z,0.52
2023-05-06T10:24:57.668Z,0.52
2023-05-06T10:25:57.786Z,0.54
2023-05-06T10:26:57.761Z,0.52
2023-05-06T10:27:57.834Z,0.52
2023-05-06T10:28:57.877Z,0.52
2023-05-06T10:29:57.924Z,0.52
2023-05-06T10:30:57.931Z,0.52
2023-05-06T10:31:58.121Z,0.53
2023-05-06T10:32:58.047Z,0.54
2023-05-06T10:33:58.032Z,0.52
2023-05-06T10:34:58.111Z,0.53
2023-05-06T10:35:58.162Z,0.53
2023-05-06T10:36:58.233Z,0.51
2023-05-06T10:37:58.195Z,0.52
2023-05-06T10:38:58.272Z,0.51
2023-05-06T10:39:58.346Z,0.50
2023-05-06T10:40:58.365Z,0.52
2023-05-06T10:41:58.493Z,0.54
2023-05-06T10:42:58.479Z,0.53
2023-05-06T10:43:58.490Z,0.54
2023-05-06T10:44:58.532Z,0.52
2023-05-06T10:45:58.615Z,0.53
2023-05-06T10:46:58.604Z,0.55
2023-05-06T10:47:58.623Z,0.55
2023-05-06T10:48:58.653Z,0.52
2023-05-06T10:49:58.680Z,0.51
2023-05-06T10:50:58.735Z,0.53
2023-05-06T10:51:58.780Z,0.53
2023-05-06T10:52:58.865Z,0.51
2023-05-06T10:53:58.861Z,0.52
2023-05-06T10:54:58.860Z,0.50
2023-05-06T10:55:58.905Z,0.52
2023-05-06T10:56:59.007Z,0.52
2023-05-06T10:57:59.028Z,0.52
2023-05-06T10:58:58.982Z,0.52
2023-05-06T10:59:59.093Z,0.53
2023-05-06T11:00:59.096Z,0.53
2023-05-06T11:01:59.129Z,0.54
2023-05-06T11:02:59.242Z,0.54
2023-05-06T11:03:59.229Z,0.51
2023-05-06T11:04:59.240Z,0.52
2023-05-06T11:05:59.239Z,0.51
2023-05-06T11:06:59.289Z,0.51
2023-05-06T11:07:59.301Z,0.50
2023-05-06T11:08:59.408Z,0.52
2023-05-06T11:09:59.727Z,0.52
2023-05-06T11:10:59.427Z,0.52
2023-05-06T11:11:59.456Z,0.50
2023-05-06T11:12:59.554Z,0.50
2023-05-06T11:13:59.623Z,0.52
2023-05-06T11:14:59.548Z,0.52
2023-05-06T11:15:59.625Z,0.52
2023-05-06T11:16:59.759Z,0.51
2023-05-06T11:17:59.740Z,0.51
2023-05-06T11:18:59.701Z,0.50
2023-05-06T11:19:59.720Z,0.52
2023-05-06T11:20:59.760Z,0.51
2023-05-06T11:21:59.766Z,0.52
2023-05-06T11:22:59.813Z,0.52
2023-05-06T11:23:59.816Z,0.51
2023-05-06T11:24:59.854Z,0.52
2023-05-06T11:25:59.951Z,0.50
2023-05-06T11:26:59.955Z,0.50
2023-05-06T11:27:59.956Z,0.51
2023-05-06T11:28:59.968Z,0.51
2023-05-06T11:30:00.162Z,0.52
2023-05-06T11:31:00.063Z,0.53
2023-05-06T11:32:00.104Z,0.54
2023-05-06T11:33:00.164Z,0.54
2023-05-06T11:34:00.112Z,0.53
2023-05-06T11:35:00.123Z,0.55
2023-05-06T11:36:00.191Z,0.53
2023-05-06T11:37:00.226Z,0.53
2023-05-06T11:38:00.251Z,0.53
2023-05-06T11:39:00.279Z,0.54
2023-05-06T11:40:00.343Z,0.54
2023-05-06T11:41:01.267Z,0.55
2023-05-06T11:42:00.353Z,0.54
2023-05-06T11:43:00.363Z,0.54
2023-05-06T11:44:00.428Z,0.54
2023-05-06T11:45:00.470Z,0.52
2023-05-06T11:46:00.508Z,0.54
2023-05-06T11:47:00.495Z,0.53
2023-05-06T11:48:00.577Z,0.53
2023-05-06T11:49:00.577Z,0.52
2023-05-06T11:50:00.575Z,0.52
2023-05-06T11:51:00.603Z,0.53
2023-05-06T11:52:00.694Z,0.53
2023-05-06T11:53:00.691Z,0.54
2023-05-06T11:54:00.696Z,0.55
2023-05-06T11:55:00.795Z,0.55
2023-05-06T11:56:00.745Z,0.53
2023-05-06T11:57:00.822Z,0.55
2023-05-06T11:58:00.827Z,0.55
2023-05-06T11:59:00.833Z,0.53
2023-05-06T12:00:00.889Z,0.53
2023-05-06T12:01:00.927Z,0.54
2023-05-06T12:02:01.023Z,0.53
2023-05-06T12:03:01.012Z,0.53
2023-05-06T12:04:01.121Z,0.54
2023-05-06T12:05:01.092Z,0.55
2023-05-06T12:06:01.086Z,0.55
2023-05-06T12:07:01.100Z,0.55
2023-05-06T12:08:01.151Z,0.55
2023-05-06T12:09:01.143Z,0.55
2023-05-06T12:10:01.240Z,0.53
2023-05-06T12:11:01.224Z,0.54
2023-05-06T12:12:01.278Z,0.53
2023-05-06T12:13:01.340Z,0.53
2023-05-06T12:14:01.353Z,0.53
2023-05-06T12:15:01.383Z,0.53
2023-05-06T12:16:01.518Z,0.54
2023-05-06T12:17:01.409Z,0.55
2023-05-06T12:18:01.751Z,0.54
2023-05-06T12:19:01.485Z,0.53
2023-05-06T12:20:01.494Z,0.54
2023-05-06T12:21:01.526Z,0.53
2023-05-06T12:22:01.558Z,0.54
2023-05-06T12:23:01.624Z,0.54
2023-05-06T12:24:01.652Z,0.53
2023-05-06T12:25:01.679Z,0.53
2023-05-06T12:26:01.716Z,0.53
2023-05-06T12:27:01.748Z,0.54
2023-05-06T12:28:01.802Z,0.54
2023-05-06T12:29:01.792Z,0.53
2023-05-06T12:30:01.876Z,0.53
2023-05-06T12:31:01.922Z,0.54
2023-05-06T12:32:01.987Z,0.54
2023-05-06T12:33:02.144Z,0.55
2023-05-06T12:34:01.997Z,0.55
2023-05-06T12:35:02.017Z,0.53
2023-05-06T12:36:02.012Z,0.53
2023-05-06T12:37:02.066Z,0.53
2023-05-06T12:38:02.103Z,0.54
2023-05-06T12:39:02.145Z,0.55
2023-05-06T12:40:02.195Z,0.54
2023-05-06T12:41:02.195Z,0.54
2023-05-06T12:42:02.192Z,0.53
2023-05-06T12:43:02.264Z,0.52
2023-05-06T12:44:02.304Z,0.51
2023-05-06T12:45:02.323Z,0.51
2023-05-06T12:46:02.325Z,0.53
2023-05-06T12:47:02.361Z,0.53
2023-05-06T12:48:02.473Z,0.54
2023-05-06T12:49:02.409Z,0.54
2023-05-06T12:50:02.593Z,0.53
2023-05-06T12:51:02.463Z,0.53
2023-05-06T12:52:02.548Z,0.53
2023-05-06T12:53:02.550Z,0.53
2023-05-06T12:54:02.594Z,0.52
2023-05-06T12:55:02.584Z,0.52
2023-05-06T12:56:02.617Z,0.54
2023-05-06T12:57:02.630Z,0.52
2023-05-06T12:58:02.683Z,0.52
2023-05-06T12:59:02.710Z,0.52
2023-05-06T13:00:02.775Z,0.51
2023-05-06T13:01:02.781Z,0.51
2023-05-06T13:02:02.782Z,0.51
2023-05-06T13:03:02.860Z,0.51
2023-05-06T13:04:02.847Z,0.52
2023-05-06T13:05:02.824Z,0.53
2023-05-06T13:06:02.873Z,0.52
2023-05-06T13:07:02.884Z,0.51
2023-05-06T13:08:02.903Z,0.52
2023-05-06T13:09:02.955Z,0.53
2023-05-06T13:10:02.986Z,0.52
2023-05-06T13:11:02.991Z,0.51
2023-05-06T13:12:03.740Z,0.51
2023-05-06T13:13:03.070Z,0.50
2023-05-06T13:14:03.058Z,0.52
2023-05-06T13:15:03.117Z,0.53
2023-05-06T13:16:03.141Z,0.52
2023-05-06T13:17:03.194Z,0.50
2023-05-06T13:18:03.224Z,0.51
2023-05-06T13:19:03.232Z,0.52
2023-05-06T13:20:05.025Z,0.52